Time;durP1;ratioP1;P1;durP2;ratioP2;P2;SDS_P1;SDS_P2;PMS_P1;PMS_P2;Temp;Humidity;BMP_temperature;BMP_pressure;BME280_temperature;BME280_humidity;BME280_pressure;Samples;Min_cycle;Max_cycle;Signal;HPM_P1;HPM_P2
2022/09/02 00:01:25;;;;;;;7.22;4.30;;;;;;;;;;5049810;28;20018;-51
2022/09/02 00:03:56;;;;;;;4.35;4.00;;;;;;;;;;5049412;28;20021;-51
2022/09/02 00:06:22;;;;;;;7.00;4.07;;;;;;;;;;5049434;28;20573;-54
2022/09/02 00:08:48;;;;;;;4.65;4.07;;;;;;;;;;5059368;28;20119;-55
2022/09/02 00:11:17;;;;;;;9.32;4.30;;;;;;;;;;5062849;28;20025;-55
2022/09/02 00:13:43;;;;;;;5.47;3.83;;;;;;;;;;5056397;28;20108;-54
2022/09/02 00:16:10;;;;;;;7.57;4.40;;;;;;;;;;5051873;28;20047;-49
2022/09/02 00:18:35;;;;;;;8.55;4.50;;;;;;;;;;5063815;28;20036;-52
2022/09/02 00:21:02;;;;;;;6.63;4.10;;;;;;;;;;5059114;28;20025;-52
2022/09/02 00:23:27;;;;;;;7.10;4.55;;;;;;;;;;5058905;28;20060;-52
2022/09/02 00:25:53;;;;;;;9.90;4.63;;;;;;;;;;5055910;28;20024;-49
2022/09/02 00:28:19;;;;;;;7.88;4.30;;;;;;;;;;5050186;28;20039;-54
2022/09/02 00:30:45;;;;;;;7.07;4.38;;;;;;;;;;5052837;28;20116;-52
2022/09/02 00:33:11;;;;;;;9.95;4.25;;;;;;;;;;5060306;28;20120;-54
2022/09/02 00:35:37;;;;;;;9.50;4.40;;;;;;;;;;5059635;28;20060;-53
2022/09/02 00:38:05;;;;;;;5.88;3.83;;;;;;;;;;5063125;28;20024;-51
2022/09/02 00:40:32;;;;;;;6.00;4.32;;;;;;;;;;5055259;28;20108;-55
2022/09/02 00:42:58;;;;;;;6.10;4.70;;;;;;;;;;5058266;28;20036;-48
2022/09/02 00:45:24;;;;;;;11.98;4.50;;;;;;;;;;5054801;28;20645;-50
2022/09/02 00:47:50;;;;;;;10.25;4.75;;;;;;;;;;5057305;28;20166;-53
2022/09/02 00:50:21;;;;;;;6.50;4.75;;;;;;;;;;5047840;28;20462;-50
2022/09/02 00:52:52;;;;;;;5.70;4.13;;;;;;;;;;5062499;28;20031;-48
2022/09/02 00:55:24;;;;;;;10.70;4.90;;;;;;;;;;5052408;28;20284;-49
2022/09/02 00:57:56;;;;;;;4.82;4.43;;;;;;;;;;5051290;28;20032;-52
2022/09/02 01:00:25;;;;;;;8.60;4.68;;;;;;;;;;5061520;28;20505;-49
2022/09/02 01:02:59;;;;;;;8.48;4.75;;;;;;;;;;5054512;28;20740;-51
2022/09/02 01:05:30;;;;;;;6.28;5.20;;;;;;;;;;5059246;28;20029;-52
2022/09/02 01:07:57;;;;;;;7.07;4.60;;;;;;;;;;5061929;28;20025;-51
2022/09/02 01:10:26;;;;;;;6.72;4.28;;;;;;;;;;5056391;28;20028;-53
2022/09/02 01:12:56;;;;;;;9.73;5.00;;;;;;;;;;5061453;28;20031;-53
2022/09/02 01:15:22;;;;;;;7.63;4.72;;;;;;;;;;5061467;28;20103;-51
2022/09/02 01:17:49;;;;;;;6.45;4.38;;;;;;;;;;5053356;28;20028;-53
2022/09/02 01:20:20;;;;;;;8.32;4.68;;;;;;;;;;5062856;28;20029;-51
2022/09/02 01:22:46;;;;;;;8.88;4.45;;;;;;;;;;5054858;28;20033;-54
2022/09/02 01:25:15;;;;;;;9.02;4.78;;;;;;;;;;5054711;28;20075;-55
2022/09/02 01:27:41;;;;;;;8.77;4.43;;;;;;;;;;5056860;28;20037;-50
2022/09/02 01:30:12;;;;;;;5.80;4.53;;;;;;;;;;5056549;28;20482;-52
2022/09/02 01:32:38;;;;;;;8.55;4.50;;;;;;;;;;5058628;28;20024;-51
2022/09/02 01:35:05;;;;;;;6.25;4.78;;;;;;;;;;5050425;28;20634;-54
2022/09/02 01:37:31;;;;;;;5.45;4.32;;;;;;;;;;5052214;28;20036;-50
2022/09/02 01:39:56;;;;;;;5.55;4.40;;;;;;;;;;5054224;28;20151;-52
2022/09/02 01:42:23;;;;;;;5.22;4.72;;;;;;;;;;5059919;28;20174;-54
2022/09/02 01:44:48;;;;;;;10.07;5.05;;;;;;;;;;5057464;28;20037;-50
2022/09/02 01:47:17;;;;;;;5.97;4.60;;;;;;;;;;5054168;28;20044;-53
2022/09/02 01:49:43;;;;;;;13.82;4.53;;;;;;;;;;5050932;28;20043;-51
2022/09/02 01:52:09;;;;;;;5.30;4.80;;;;;;;;;;5050768;28;20529;-52
2022/09/02 01:54:34;;;;;;;5.70;4.38;;;;;;;;;;5055082;28;20111;-54
2022/09/02 01:57:00;;;;;;;5.30;4.07;;;;;;;;;;5052345;28;20500;-54
2022/09/02 01:59:26;;;;;;;8.73;4.57;;;;;;;;;;5057078;28;20115;-55
2022/09/02 02:01:51;;;;;;;7.97;4.20;;;;;;;;;;5052496;28;20051;-53
2022/09/02 02:04:17;;;;;;;9.32;5.15;;;;;;;;;;5052711;28;20044;-51
2022/09/02 02:06:44;;;;;;;10.85;4.68;;;;;;;;;;5046645;28;20021;-51
2022/09/02 02:09:11;;;;;;;5.45;4.55;;;;;;;;;;5061872;28;20090;-54
2022/09/02 02:11:37;;;;;;;8.63;4.80;;;;;;;;;;5061701;28;20033;-50
2022/09/02 02:14:04;;;;;;;8.82;4.43;;;;;;;;;;5057909;28;20020;-54
2022/09/02 02:16:30;;;;;;;6.10;4.55;;;;;;;;;;5052773;28;20028;-50
2022/09/02 02:18:56;;;;;;;4.53;3.75;;;;;;;;;;5056406;28;20024;-53
2022/09/02 02:21:22;;;;;;;10.07;4.57;;;;;;;;;;5058284;28;20033;-51
2022/09/02 02:23:48;;;;;;;9.63;4.53;;;;;;;;;;5049629;28;20104;-54
2022/09/02 02:26:14;;;;;;;8.52;4.15;;;;;;;;;;5063808;28;20032;-51
2022/09/02 02:28:39;;;;;;;7.35;4.78;;;;;;;;;;5059898;28;20037;-48
2022/09/02 02:31:05;;;;;;;7.70;4.60;;;;;;;;;;5056987;28;20553;-51
2022/09/02 02:33:31;;;;;;;7.45;4.07;;;;;;;;;;5061018;28;20028;-52
2022/09/02 02:35:57;;;;;;;9.13;4.28;;;;;;;;;;5058533;28;20389;-54
2022/09/02 02:38:23;;;;;;;5.90;4.40;;;;;;;;;;5061116;28;20060;-52
2022/09/02 02:40:48;;;;;;;7.32;4.53;;;;;;;;;;5041802;28;20017;-51
2022/09/02 02:43:14;;;;;;;5.32;4.40;;;;;;;;;;5044690;28;20043;-52
2022/09/02 02:45:40;;;;;;;6.13;4.55;;;;;;;;;;5058957;28;20135;-50
2022/09/02 02:48:05;;;;;;;5.80;4.47;;;;;;;;;;5047524;28;20104;-52
2022/09/02 02:50:32;;;;;;;5.38;4.32;;;;;;;;;;5054728;28;20036;-52
2022/09/02 02:53:01;;;;;;;11.43;4.75;;;;;;;;;;5048442;28;20134;-51
2022/09/02 02:55:27;;;;;;;4.90;4.35;;;;;;;;;;5055083;28;20497;-49
2022/09/02 02:57:53;;;;;;;7.07;4.03;;;;;;;;;;5056502;28;20402;-50
2022/09/02 03:00:22;;;;;;;7.47;4.43;;;;;;;;;;5055371;28;20033;-50
2022/09/02 03:02:48;;;;;;;9.07;4.68;;;;;;;;;;5056906;28;20071;-53
2022/09/02 03:05:14;;;;;;;4.63;3.92;;;;;;;;;;5050193;28;20040;-51
2022/09/02 03:07:41;;;;;;;4.30;4.00;;;;;;;;;;5051905;28;20025;-50
2022/09/02 03:10:08;;;;;;;7.03;4.50;;;;;;;;;;5052212;28;20048;-53
2022/09/02 03:12:36;;;;;;;6.93;4.13;;;;;;;;;;5055198;28;22594;-50
2022/09/02 03:15:03;;;;;;;7.85;4.05;;;;;;;;;;5051915;28;20094;-54
2022/09/02 03:17:29;;;;;;;5.07;4.40;;;;;;;;;;5051040;28;20086;-49
2022/09/02 03:19:56;;;;;;;8.48;4.22;;;;;;;;;;5052274;28;20025;-52
2022/09/02 03:22:22;;;;;;;4.88;4.35;;;;;;;;;;5057352;28;20043;-48
2022/09/02 03:24:47;;;;;;;4.13;3.83;;;;;;;;;;5049619;28;20013;-48
2022/09/02 03:27:13;;;;;;;5.18;4.32;;;;;;;;;;5038547;28;20107;-54
2022/09/02 03:29:39;;;;;;;6.93;4.57;;;;;;;;;;5047622;28;20025;-51
2022/09/02 03:32:04;;;;;;;7.97;4.40;;;;;;;;;;5052299;28;20052;-50
2022/09/02 03:34:31;;;;;;;10.52;3.97;;;;;;;;;;5050894;28;20028;-50
2022/09/02 03:36:57;;;;;;;7.28;4.55;;;;;;;;;;5058573;28;20492;-53
2022/09/02 03:39:22;;;;;;;7.25;4.45;;;;;;;;;;5056668;28;20040;-52
2022/09/02 03:41:49;;;;;;;5.57;4.05;;;;;;;;;;5058846;28;20051;-51
2022/09/02 03:44:15;;;;;;;7.07;4.57;;;;;;;;;;5053132;28;20223;-49
2022/09/02 03:46:41;;;;;;;6.60;4.38;;;;;;;;;;5057848;28;20030;-54
2022/09/02 03:49:07;;;;;;;4.65;4.13;;;;;;;;;;5058335;28;20036;-51
2022/09/02 03:51:33;;;;;;;4.72;3.90;;;;;;;;;;5056834;28;20032;-50
2022/09/02 03:54:01;;;;;;;4.65;3.65;;;;;;;;;;5059565;28;20477;-51
2022/09/02 03:56:27;;;;;;;4.75;3.63;;;;;;;;;;5051204;28;20041;-51
2022/09/02 03:58:52;;;;;;;4.55;4.15;;;;;;;;;;5053402;28;20036;-51
2022/09/02 04:01:21;;;;;;;4.50;4.10;;;;;;;;;;5056680;28;20029;-52
2022/09/02 04:03:48;;;;;;;4.85;4.35;;;;;;;;;;5053820;28;20485;-50
2022/09/02 04:06:15;;;;;;;7.60;4.18;;;;;;;;;;5040584;28;20129;-54
2022/09/02 04:08:42;;;;;;;6.78;4.20;;;;;;;;;;5044332;28;20021;-51
2022/09/02 04:11:10;;;;;;;5.68;4.15;;;;;;;;;;5043723;28;20124;-52
2022/09/02 04:13:36;;;;;;;8.25;4.00;;;;;;;;;;5044507;28;20033;-50
2022/09/02 04:16:09;;;;;;;9.48;4.00;;;;;;;;;;5051096;28;20077;-55
2022/09/02 04:18:34;;;;;;;4.88;3.80;;;;;;;;;;5056873;28;20040;-52
2022/09/02 04:21:01;;;;;;;4.10;3.70;;;;;;;;;;5056890;28;20032;-54
2022/09/02 04:23:27;;;;;;;4.57;3.80;;;;;;;;;;5055261;28;20124;-51
2022/09/02 04:25:53;;;;;;;5.85;4.15;;;;;;;;;;5050714;28;20465;-54
2022/09/02 04:28:19;;;;;;;5.35;3.80;;;;;;;;;;5056611;28;20035;-54
2022/09/02 04:30:45;;;;;;;6.70;4.43;;;;;;;;;;5044105;28;20055;-54
2022/09/02 04:33:12;;;;;;;7.78;4.50;;;;;;;;;;5052634;28;20025;-50
2022/09/02 04:35:42;;;;;;;8.25;4.10;;;;;;;;;;5056842;28;20032;-53
2022/09/02 04:38:08;;;;;;;6.40;4.25;;;;;;;;;;5051778;28;20056;-53
2022/09/02 04:40:34;;;;;;;5.60;4.22;;;;;;;;;;5056800;28;20319;-52
2022/09/02 04:43:00;;;;;;;5.65;4.22;;;;;;;;;;5055502;28;20029;-53
2022/09/02 04:45:26;;;;;;;6.63;4.13;;;;;;;;;;5054557;28;20091;-50
2022/09/02 04:47:51;;;;;;;4.80;4.40;;;;;;;;;;5056456;28;20083;-53
2022/09/02 04:50:17;;;;;;;5.97;3.78;;;;;;;;;;5053424;28;20024;-49
2022/09/02 04:52:43;;;;;;;4.53;3.80;;;;;;;;;;5051210;28;21019;-52
2022/09/02 04:55:09;;;;;;;10.63;4.13;;;;;;;;;;5062956;28;20025;-51
2022/09/02 04:57:35;;;;;;;6.30;4.20;;;;;;;;;;5064012;28;20143;-49
2022/09/02 05:00:06;;;;;;;6.63;4.30;;;;;;;;;;5061095;28;20115;-51
2022/09/02 05:02:32;;;;;;;7.40;3.58;;;;;;;;;;5059796;28;20058;-47
2022/09/02 05:04:58;;;;;;;5.30;3.97;;;;;;;;;;5060812;28;20040;-54
2022/09/02 05:07:24;;;;;;;6.57;4.00;;;;;;;;;;5052908;28;20029;-50
2022/09/02 05:09:55;;;;;;;5.13;3.97;;;;;;;;;;5063882;28;20123;-51
2022/09/02 05:12:21;;;;;;;6.78;4.15;;;;;;;;;;5055983;28;20987;-49
2022/09/02 05:14:47;;;;;;;6.25;4.20;;;;;;;;;;5061508;28;20036;-54
2022/09/02 05:17:14;;;;;;;6.82;4.85;;;;;;;;;;5062483;28;20028;-53
2022/09/02 05:19:40;;;;;;;9.95;4.18;;;;;;;;;;5061199;28;20058;-50
2022/09/02 05:22:05;;;;;;;5.50;3.90;;;;;;;;;;5055948;28;20040;-53
2022/09/02 05:24:31;;;;;;;8.73;3.85;;;;;;;;;;5053371;28;20496;-49
2022/09/02 05:26:57;;;;;;;6.85;3.85;;;;;;;;;;5058068;28;20056;-50
2022/09/02 05:29:23;;;;;;;6.13;3.92;;;;;;;;;;5051886;28;20028;-52
2022/09/02 05:31:49;;;;;;;7.88;3.60;;;;;;;;;;5046351;28;20036;-50
2022/09/02 05:34:15;;;;;;;5.15;4.18;;;;;;;;;;5047823;28;20028;-50
2022/09/02 05:36:40;;;;;;;8.95;4.60;;;;;;;;;;5039704;28;20398;-51
2022/09/02 05:39:06;;;;;;;6.80;4.05;;;;;;;;;;5038591;28;20025;-52
2022/09/02 05:41:32;;;;;;;7.25;3.92;;;;;;;;;;5045782;28;20112;-54
2022/09/02 05:44:00;;;;;;;5.30;4.18;;;;;;;;;;5051906;28;20059;-49
2022/09/02 05:46:26;;;;;;;5.97;4.47;;;;;;;;;;5049115;28;20029;-49
2022/09/02 05:49:06;;;;;;;5.25;4.18;;;;;;;;;;5045450;28;20017;-49
2022/09/02 05:51:37;;;;;;;4.60;3.85;;;;;;;;;;5037717;28;20032;-53
2022/09/02 05:54:03;;;;;;;6.27;4.67;;;;;;;;;;5052801;28;20032;-53
2022/09/02 05:56:29;;;;;;;5.22;3.58;;;;;;;;;;5051773;28;20298;-49
2022/09/02 05:58:56;;;;;;;8.07;3.80;;;;;;;;;;5053603;28;20066;-51
2022/09/02 06:01:21;;;;;;;6.75;3.78;;;;;;;;;;5051528;28;20022;-50
2022/09/02 06:03:47;;;;;;;5.43;4.10;;;;;;;;;;5055191;28;20428;-54
2022/09/02 06:06:13;;;;;;;8.07;3.72;;;;;;;;;;5050918;28;20060;-51
2022/09/02 06:08:39;;;;;;;3.85;3.55;;;;;;;;;;5049384;28;20121;-54
2022/09/02 06:11:08;;;;;;;4.50;4.10;;;;;;;;;;5046393;28;20033;-53
2022/09/02 06:13:36;;;;;;;6.53;3.85;;;;;;;;;;5051743;28;20473;-54
2022/09/02 06:16:03;;;;;;;5.50;3.63;;;;;;;;;;5042839;28;20537;-52
2022/09/02 06:18:29;;;;;;;6.03;3.75;;;;;;;;;;5049233;28;20021;-48
2022/09/02 06:20:54;;;;;;;3.67;3.35;;;;;;;;;;5052522;28;20040;-51
2022/09/02 06:23:20;;;;;;;4.22;3.30;;;;;;;;;;5051228;28;20040;-52
2022/09/02 06:25:47;;;;;;;5.72;3.20;;;;;;;;;;5046775;28;20469;-52
2022/09/02 06:28:13;;;;;;;7.93;3.50;;;;;;;;;;5049894;28;20029;-51
2022/09/02 06:30:41;;;;;;;4.45;3.33;;;;;;;;;;5040606;28;20061;-50
2022/09/02 06:33:08;;;;;;;5.55;3.47;;;;;;;;;;5044973;28;20021;-52
2022/09/02 06:35:39;;;;;;;8.98;3.17;;;;;;;;;;5041507;28;20166;-52
2022/09/02 06:38:05;;;;;;;6.28;3.10;;;;;;;;;;5051922;28;20042;-50
2022/09/02 06:40:31;;;;;;;4.13;3.03;;;;;;;;;;5049206;28;20041;-53
2022/09/02 06:42:56;;;;;;;4.57;3.08;;;;;;;;;;5059362;28;20040;-50
2022/09/02 06:45:23;;;;;;;3.85;3.45;;;;;;;;;;5058389;28;20431;-50
2022/09/02 06:47:49;;;;;;;4.80;3.20;;;;;;;;;;5059778;28;20012;-41
2022/09/02 06:50:15;;;;;;;5.43;2.97;;;;;;;;;;5058423;28;20071;-50
2022/09/02 06:52:41;;;;;;;3.80;3.40;;;;;;;;;;5055049;28;20079;-51
2022/09/02 06:55:09;;;;;;;9.18;3.30;;;;;;;;;;5052914;28;20406;-50
2022/09/02 06:57:35;;;;;;;5.50;3.00;;;;;;;;;;5042458;28;20064;-49
2022/09/02 07:00:04;;;;;;;5.00;3.50;;;;;;;;;;5050264;28;20070;-52
2022/09/02 07:02:30;;;;;;;4.15;2.90;;;;;;;;;;5050065;28;20039;-52
2022/09/02 07:05:14;;;;;;;5.35;3.30;;;;;;;;;;5050221;28;20029;-52
2022/09/02 07:07:43;;;;;;;3.78;3.33;;;;;;;;;;5048005;28;20037;-52
2022/09/02 07:10:11;;;;;;;5.00;2.83;;;;;;;;;;5047285;28;20361;-51
2022/09/02 07:12:38;;;;;;;3.63;3.15;;;;;;;;;;5042243;28;20034;-52
2022/09/02 07:15:05;;;;;;;4.07;2.90;;;;;;;;;;5037408;28;20028;-52
2022/09/02 07:17:31;;;;;;;6.55;4.00;;;;;;;;;;5045805;28;20021;-52
2022/09/02 07:19:59;;;;;;;10.68;3.67;;;;;;;;;;5044683;28;20036;-51
2022/09/02 07:22:28;;;;;;;6.10;3.38;;;;;;;;;;5049173;28;20049;-52
2022/09/02 07:24:54;;;;;;;5.65;3.75;;;;;;;;;;5046069;28;20520;-54
2022/09/02 07:27:20;;;;;;;6.55;3.40;;;;;;;;;;5047209;28;20107;-53
2022/09/02 07:29:47;;;;;;;6.30;3.60;;;;;;;;;;5047996;28;20032;-52
2022/09/02 07:32:17;;;;;;;4.55;3.65;;;;;;;;;;5030144;28;20031;-50
2022/09/02 07:34:43;;;;;;;6.32;3.70;;;;;;;;;;5045374;28;20103;-48
2022/09/02 07:37:08;;;;;;;6.00;3.53;;;;;;;;;;5044914;28;20120;-53
2022/09/02 07:39:34;;;;;;;7.28;3.55;;;;;;;;;;5047275;28;20079;-54
2022/09/02 07:42:00;;;;;;;6.20;3.63;;;;;;;;;;5047534;28;20056;-55
2022/09/02 07:44:26;;;;;;;11.63;3.65;;;;;;;;;;5051991;28;20044;-53
2022/09/02 07:46:52;;;;;;;6.68;3.40;;;;;;;;;;5044841;28;20021;-51
2022/09/02 07:49:19;;;;;;;7.75;3.75;;;;;;;;;;5045651;28;20115;-54
2022/09/02 07:51:48;;;;;;;4.45;3.15;;;;;;;;;;5041967;28;20067;-50
2022/09/02 07:54:15;;;;;;;8.30;3.50;;;;;;;;;;5049933;28;20025;-50
2022/09/02 07:56:42;;;;;;;9.70;3.75;;;;;;;;;;5042454;28;20068;-53
2022/09/02 07:59:08;;;;;;;9.27;3.83;;;;;;;;;;5043742;28;20035;-52
2022/09/02 08:01:35;;;;;;;5.78;3.65;;;;;;;;;;5047423;28;20033;-50
2022/09/02 08:04:01;;;;;;;10.82;3.65;;;;;;;;;;5052039;28;20381;-52
2022/09/02 08:06:27;;;;;;;9.20;4.30;;;;;;;;;;5047568;28;20071;-52
2022/09/02 08:08:54;;;;;;;15.90;4.63;;;;;;;;;;5046731;28;20039;-53
2022/09/02 08:11:21;;;;;;;14.15;4.03;;;;;;;;;;5050184;28;20031;-52
2022/09/02 08:13:46;;;;;;;13.40;3.90;;;;;;;;;;5049943;28;20033;-48
2022/09/02 08:16:12;;;;;;;11.57;3.90;;;;;;;;;;5051730;28;20030;-52
2022/09/02 08:18:38;;;;;;;11.07;4.22;;;;;;;;;;5049430;28;20027;-48
2022/09/02 08:21:04;;;;;;;11.95;4.03;;;;;;;;;;5057227;28;20028;-50
2022/09/02 08:23:29;;;;;;;6.53;3.78;;;;;;;;;;5040920;28;20033;-51
2022/09/02 08:25:58;;;;;;;8.60;3.47;;;;;;;;;;5045011;28;20499;-51
2022/09/02 08:28:24;;;;;;;11.90;4.60;;;;;;;;;;5051763;28;20029;-48
2022/09/02 08:30:49;;;;;;;11.90;4.00;;;;;;;;;;5053633;28;20032;-52
2022/09/02 08:33:15;;;;;;;7.43;4.22;;;;;;;;;;5048520;28;20077;-52
2022/09/02 08:35:41;;;;;;;10.63;4.03;;;;;;;;;;5049894;28;20104;-49
2022/09/02 08:38:06;;;;;;;9.68;3.60;;;;;;;;;;5058161;28;20059;-51
2022/09/02 08:40:43;;;;;;;7.55;3.90;;;;;;;;;;5056126;28;20050;-52
2022/09/02 08:43:31;;;;;;;10.70;4.05;;;;;;;;;;5053741;28;20044;-50
2022/09/02 08:46:03;;;;;;;10.77;4.03;;;;;;;;;;5057781;28;20024;-53
2022/09/02 08:48:38;;;;;;;4.47;3.35;;;;;;;;;;5051650;28;20029;-51
2022/09/02 08:51:17;;;;;;;12.60;4.28;;;;;;;;;;5052136;28;20033;-48
2022/09/02 08:54:06;;;;;;;10.60;4.47;;;;;;;;;;5051469;28;20038;-53
2022/09/02 08:56:32;;;;;;;11.48;3.47;;;;;;;;;;5057127;28;20132;-55
2022/09/02 08:59:01;;;;;;;14.95;4.25;;;;;;;;;;5046644;28;20772;-53
2022/09/02 09:01:43;;;;;;;9.10;3.85;;;;;;;;;;5043745;28;20033;-51
2022/09/02 09:04:08;;;;;;;5.63;3.50;;;;;;;;;;5048800;28;20040;-53
2022/09/02 09:06:51;;;;;;;9.27;3.65;;;;;;;;;;5050805;28;20106;-51
2022/09/02 09:09:28;;;;;;;9.57;3.88;;;;;;;;;;5057270;28;20033;-54
2022/09/02 09:12:14;;;;;;;7.75;3.75;;;;;;;;;;5047983;28;20111;-54
2022/09/02 09:14:49;;;;;;;15.70;4.28;;;;;;;;;;5057215;28;20036;-53
2022/09/02 09:17:25;;;;;;;4.63;3.60;;;;;;;;;;5057197;28;20406;-54
2022/09/02 09:19:53;;;;;;;5.85;3.45;;;;;;;;;;5041311;28;20037;-54
2022/09/02 09:22:24;;;;;;;11.90;3.60;;;;;;;;;;5033512;28;20034;-52
2022/09/02 09:24:50;;;;;;;13.18;3.67;;;;;;;;;;5054801;28;20050;-49
2022/09/02 09:27:21;;;;;;;9.30;4.00;;;;;;;;;;5045013;28;20028;-52
2022/09/02 09:29:50;;;;;;;9.55;3.30;;;;;;;;;;5046849;28;20029;-53
2022/09/02 09:32:26;;;;;;;5.18;3.40;;;;;;;;;;5057130;28;20458;-49
2022/09/02 09:34:52;;;;;;;4.82;3.40;;;;;;;;;;5051365;28;20103;-55
2022/09/02 09:37:46;;;;;;;9.23;4.05;;;;;;;;;;5054372;28;20166;-51
2022/09/02 09:40:21;;;;;;;11.45;3.70;;;;;;;;;;5043478;28;20585;-53
2022/09/02 09:42:54;;;;;;;8.07;3.67;;;;;;;;;;5053663;28;21942;-52
2022/09/02 09:45:31;;;;;;;6.35;3.67;;;;;;;;;;5046984;28;20055;-54
2022/09/02 09:48:15;;;;;;;9.82;3.28;;;;;;;;;;5049756;28;20108;-50
2022/09/02 09:50:46;;;;;;;7.07;3.90;;;;;;;;;;5047493;28;20031;-52
2022/09/02 09:53:21;;;;;;;6.80;3.95;;;;;;;;;;5048986;28;20539;-54
2022/09/02 09:55:56;;;;;;;7.95;3.50;;;;;;;;;;5052262;28;20040;-52
2022/09/02 09:58:44;;;;;;;12.93;3.90;;;;;;;;;;5043415;28;20064;-49
2022/09/02 10:01:17;;;;;;;9.75;4.20;;;;;;;;;;5043058;28;20040;-53
2022/09/02 10:04:08;;;;;;;9.75;3.80;;;;;;;;;;5049031;28;20033;-51
2022/09/02 10:06:43;;;;;;;13.10;4.53;;;;;;;;;;5040529;28;20037;-51
2022/09/02 10:09:21;;;;;;;6.18;3.58;;;;;;;;;;5042712;28;20036;-54
2022/09/02 10:12:07;;;;;;;8.02;3.50;;;;;;;;;;5045062;28;20029;-49
2022/09/02 10:14:38;;;;;;;9.52;3.90;;;;;;;;;;5046205;28;20041;-50
2022/09/02 10:17:22;;;;;;;10.50;3.93;;;;;;;;;;5046343;28;20493;-49
2022/09/02 10:20:03;;;;;;;5.07;3.45;;;;;;;;;;5051843;28;20040;-51
2022/09/02 10:22:43;;;;;;;9.93;4.20;;;;;;;;;;5048876;28;20115;-51
2022/09/02 10:25:32;;;;;;;11.23;5.68;;;;;;;;;;5054525;28;20044;-51
2022/09/02 10:28:10;;;;;;;7.22;4.80;;;;;;;;;;5051373;28;20035;-53
2022/09/02 10:30:50;;;;;;;10.77;6.07;;;;;;;;;;5041359;28;20082;-53
2022/09/02 10:33:44;;;;;;;8.43;2.80;;;;;;;;;;5044665;28;20470;-51
2022/09/02 10:36:17;;;;;;;8.30;3.80;;;;;;;;;;5046803;28;20052;-52
2022/09/02 10:38:46;;;;;;;6.85;3.50;;;;;;;;;;5047923;28;20043;-51
2022/09/02 10:41:12;;;;;;;8.05;3.35;;;;;;;;;;5054414;28;20024;-51
2022/09/02 10:43:56;;;;;;;12.23;3.22;;;;;;;;;;5048426;28;20509;-50
2022/09/02 10:46:23;;;;;;;9.10;4.13;;;;;;;;;;5040921;28;20135;-53
2022/09/02 10:49:09;;;;;;;7.82;3.58;;;;;;;;;;5046200;28;20550;-51
2022/09/02 10:52:08;;;;;;;3.50;3.20;;;;;;;;;;5044993;28;20056;-51
2022/09/02 10:54:57;;;;;;;3.72;3.05;;;;;;;;;;4986896;28;20125;-49
2022/09/02 10:57:28;;;;;;;7.10;3.03;;;;;;;;;;4988142;28;20665;-54
2022/09/02 11:00:11;;;;;;;9.52;3.03;;;;;;;;;;4991310;28;20565;-53
2022/09/02 11:02:45;;;;;;;3.72;3.20;;;;;;;;;;4976466;28;20140;-53
2022/09/02 11:05:20;;;;;;;6.75;2.63;;;;;;;;;;4977719;28;20042;-54
2022/09/02 11:07:54;;;;;;;5.72;3.00;;;;;;;;;;4979075;28;20026;-51
2022/09/02 11:10:27;;;;;;;6.13;2.95;;;;;;;;;;4992742;28;20136;-50
2022/09/02 11:12:59;;;;;;;3.40;2.70;;;;;;;;;;4991686;28;20050;-50
2022/09/02 11:15:28;;;;;;;5.55;3.20;;;;;;;;;;4984767;28;20114;-54
2022/09/02 11:18:03;;;;;;;6.53;3.30;;;;;;;;;;4988518;28;20121;-54
2022/09/02 11:20:53;;;;;;;6.18;3.50;;;;;;;;;;4990559;28;20085;-55
2022/09/02 11:23:30;;;;;;;3.67;2.97;;;;;;;;;;4988515;28;20034;-40
2022/09/02 11:26:20;;;;;;;4.20;2.92;;;;;;;;;;4993090;28;20487;-53
2022/09/02 11:28:53;;;;;;;5.25;3.13;;;;;;;;;;4982440;28;20038;-55
2022/09/02 11:31:40;;;;;;;5.28;3.35;;;;;;;;;;5003292;28;20029;-55
2022/09/02 11:34:24;;;;;;;4.38;3.13;;;;;;;;;;5048183;28;20040;-53
2022/09/02 11:36:50;;;;;;;4.00;2.85;;;;;;;;;;5042019;28;20035;-51
2022/09/02 11:39:29;;;;;;;4.22;2.75;;;;;;;;;;5042211;28;20021;-51
2022/09/02 11:42:33;;;;;;;3.17;2.70;;;;;;;;;;5037679;28;20028;-50
2022/09/02 11:45:09;;;;;;;3.70;2.70;;;;;;;;;;5050036;28;20035;-53
2022/09/02 11:47:54;;;;;;;3.22;2.80;;;;;;;;;;5055749;28;20020;-52
2022/09/02 11:50:42;;;;;;;2.92;2.65;;;;;;;;;;5046576;28;20039;-51
2022/09/02 11:53:19;;;;;;;5.30;2.83;;;;;;;;;;5053473;28;20496;-51
2022/09/02 11:55:47;;;;;;;8.43;3.67;;;;;;;;;;5049573;28;20140;-50
2022/09/02 11:58:33;;;;;;;4.60;3.50;;;;;;;;;;5051521;28;20181;-53
2022/09/02 12:01:14;;;;;;;8.23;3.28;;;;;;;;;;5048862;28;20036;-51
2022/09/02 12:03:46;;;;;;;7.30;3.40;;;;;;;;;;5045519;28;20119;-49
2022/09/02 12:06:14;;;;;;;2.90;2.70;;;;;;;;;;5042842;28;20037;-51
2022/09/02 12:08:41;;;;;;;6.53;2.97;;;;;;;;;;5045435;28;20037;-52
2022/09/02 12:11:10;;;;;;;4.93;2.75;;;;;;;;;;5043498;28;20508;-50
2022/09/02 12:13:47;;;;;;;7.13;2.85;;;;;;;;;;5045563;28;20059;-47
2022/09/02 12:16:22;;;;;;;4.30;2.80;;;;;;;;;;5042548;28;20038;-50
2022/09/02 12:18:52;;;;;;;6.93;2.97;;;;;;;;;;5051432;28;20070;-49
2022/09/02 12:21:19;;;;;;;3.10;2.90;;;;;;;;;;5051441;28;20051;-50
2022/09/02 12:23:48;;;;;;;4.93;2.50;;;;;;;;;;5043658;28;20029;-49
2022/09/02 12:26:15;;;;;;;2.83;2.60;;;;;;;;;;5047833;28;20028;-53
2022/09/02 12:28:45;;;;;;;5.13;2.60;;;;;;;;;;5044291;28;20276;-54
2022/09/02 12:31:15;;;;;;;5.38;2.65;;;;;;;;;;5046524;28;20033;-55
2022/09/02 12:33:43;;;;;;;3.65;2.50;;;;;;;;;;5046430;28;20086;-52
2022/09/02 12:36:35;;;;;;;4.80;2.40;;;;;;;;;;5032659;28;20064;-54
2022/09/02 12:39:26;;;;;;;3.92;2.92;;;;;;;;;;5039689;28;20098;-50
2022/09/02 12:42:03;;;;;;;5.65;2.80;;;;;;;;;;5042449;28;20037;-50
2022/09/02 12:45:10;;;;;;;3.25;2.90;;;;;;;;;;5033774;28;20441;-51
2022/09/02 12:48:06;;;;;;;5.10;2.50;;;;;;;;;;5048598;28;20420;-51
2022/09/02 12:50:57;;;;;;;7.40;2.63;;;;;;;;;;5051310;28;20033;-51
2022/09/02 12:53:23;;;;;;;5.55;2.78;;;;;;;;;;5052909;28;20108;-51
2022/09/02 12:56:02;;;;;;;3.47;2.53;;;;;;;;;;5048827;28;20131;-53
2022/09/02 12:58:41;;;;;;;4.85;2.60;;;;;;;;;;5051535;28;20052;-49
2022/09/02 13:01:16;;;;;;;2.38;2.22;;;;;;;;;;5056052;28;20060;-48
2022/09/02 13:03:48;;;;;;;3.30;2.50;;;;;;;;;;5044393;28;21479;-52
2022/09/02 13:06:20;;;;;;;6.88;2.38;;;;;;;;;;5050463;28;20048;-53
2022/09/02 13:09:10;;;;;;;5.32;2.17;;;;;;;;;;5046310;28;20366;-55
2022/09/02 13:11:44;;;;;;;4.13;2.80;;;;;;;;;;5042835;28;20067;-51
2022/09/02 13:14:14;;;;;;;5.13;2.72;;;;;;;;;;5051828;28;20032;-50
2022/09/02 13:17:19;;;;;;;4.80;2.40;;;;;;;;;;5047589;28;20119;-53
2022/09/02 13:20:23;;;;;;;6.68;2.50;;;;;;;;;;5051759;28;20112;-50
2022/09/02 13:23:27;;;;;;;7.03;2.50;;;;;;;;;;5053037;28;20187;-52
2022/09/02 13:26:49;;;;;;;9.40;2.80;;;;;;;;;;4965024;28;20036;-54
2022/09/02 13:29:34;;;;;;;7.45;2.35;;;;;;;;;;4955257;28;20122;-52
2022/09/02 13:32:10;;;;;;;2.95;2.65;;;;;;;;;;4954293;28;20039;-54
2022/09/02 13:34:44;;;;;;;3.13;2.35;;;;;;;;;;4954926;28;20049;-54
2022/09/02 13:37:34;;;;;;;6.20;2.63;;;;;;;;;;4950165;28;20097;-52
2022/09/02 13:40:18;;;;;;;4.15;2.55;;;;;;;;;;4939663;28;20039;-50
2022/09/02 13:42:49;;;;;;;5.13;2.17;;;;;;;;;;4950322;28;20051;-53
2022/09/02 13:45:17;;;;;;;4.63;2.57;;;;;;;;;;4943511;28;20034;-55
2022/09/02 13:47:52;;;;;;;6.55;2.58;;;;;;;;;;4955429;28;20039;-54
2022/09/02 13:50:21;;;;;;;5.25;2.60;;;;;;;;;;4956710;28;20488;-51
2022/09/02 13:52:51;;;;;;;6.25;2.80;;;;;;;;;;4951216;28;20507;-51
2022/09/02 13:55:19;;;;;;;7.82;2.80;;;;;;;;;;4955829;28;20820;-51
2022/09/02 13:57:56;;;;;;;9.52;2.97;;;;;;;;;;4953273;28;20878;-51
2022/09/02 14:00:37;;;;;;;14.38;2.80;;;;;;;;;;4957290;28;20150;-51
2022/09/02 14:03:09;;;;;;;6.82;3.15;;;;;;;;;;5036796;28;20072;-52
2022/09/02 14:05:39;;;;;;;5.35;2.65;;;;;;;;;;5036793;28;20041;-50
2022/09/02 14:08:07;;;;;;;13.45;3.40;;;;;;;;;;5051140;28;20037;-49
2022/09/02 14:10:36;;;;;;;5.60;2.80;;;;;;;;;;5054845;28;20053;-50
2022/09/02 14:13:03;;;;;;;7.45;3.40;;;;;;;;;;5056973;28;20039;-49
2022/09/02 14:15:32;;;;;;;8.18;3.05;;;;;;;;;;5052113;28;20025;-51
2022/09/02 14:18:08;;;;;;;10.13;3.13;;;;;;;;;;5051188;28;20032;-51
2022/09/02 14:20:37;;;;;;;4.38;3.13;;;;;;;;;;5050999;28;20118;-51
2022/09/02 14:23:03;;;;;;;6.40;3.53;;;;;;;;;;5053729;28;20453;-54
2022/09/02 14:25:36;;;;;;;12.57;3.55;;;;;;;;;;5054259;28;20025;-52
2022/09/02 14:28:09;;;;;;;6.68;3.60;;;;;;;;;;5049571;28;20087;-50
2022/09/02 14:30:37;;;;;;;4.18;3.67;;;;;;;;;;5052296;28;20115;-50
2022/09/02 14:33:21;;;;;;;13.75;4.43;;;;;;;;;;5050366;28;20021;-51
2022/09/02 14:36:12;;;;;;;13.93;4.70;;;;;;;;;;5040765;28;20033;-51
2022/09/02 14:38:43;;;;;;;14.07;4.80;;;;;;;;;;5046731;28;20120;-50
2022/09/02 14:41:20;;;;;;;12.50;4.28;;;;;;;;;;5044899;28;20040;-48
2022/09/02 14:43:59;;;;;;;12.02;4.00;;;;;;;;;;5040260;28;20045;-51
2022/09/02 14:46:26;;;;;;;13.98;4.15;;;;;;;;;;5042726;28;20040;-50
2022/09/02 14:49:00;;;;;;;9.98;3.75;;;;;;;;;;5045752;28;20025;-50
2022/09/02 14:51:33;;;;;;;10.50;4.10;;;;;;;;;;5052159;28;20082;-48
2022/09/02 14:53:59;;;;;;;11.13;4.57;;;;;;;;;;5047369;28;20071;-49
2022/09/02 14:56:43;;;;;;;13.80;3.88;;;;;;;;;;5054993;28;20044;-50
2022/09/02 14:59:09;;;;;;;8.15;4.00;;;;;;;;;;5048768;28;20421;-49
2022/09/02 15:01:50;;;;;;;15.05;4.45;;;;;;;;;;5049397;28;20032;-50
2022/09/02 15:04:18;;;;;;;13.57;4.55;;;;;;;;;;5046286;28;20039;-46